Terminal Aerodrome Forecast
Issued by NWS Cleveland, OH

Home | Current Version | Previous Version | Graphics & Text | Print | Product List | Glossary On
Versions: 1 2 3 4 5 6 7 8 9 10 11 12 13 14 15
000
FTUS41 KCLE 311733
TAFTOL
TAF
KTOL 311733Z 3118/0118 26012G18KT P6SM SCT050
     FM312100 27012G18KT P6SM VCSH SCT050
      TEMPO 3121/3124 BKN050
     FM010000 27006KT P6SM SKC
     FM011400 26008KT P6SM SKC=

USA.gov is the U.S. government's official web portal to all federal, state and local government web resources and services.